Flight Track Log - Related Links

Times and Time Zones

All times are in EDT time to prevent confusion due to time zone crossing. See the N517CP flight status page for this flight to view local times or setup timezone preferences in your user account.


Time Position Orientation Groundspeed Altitude Reporting Facility
EDT Latitude Longitude Course Direction KTS MPH feet Rate Location/Type
Wed 02:24:42 PM 29.5847 -95.6556 181° South 110 127 1,600  Level Houston Center
Wed 02:25:20 PM 29.5689 -95.6531 172° South 113 130 2,000 600 Climbing Houston Center
Wed 02:25:42 PM 29.5467 -95.6528 179° South 139 160 2,200 968 Climbing Houston Center
Wed 02:26:22 PM 29.5414 -95.6750 255° West 144 166 3,000 1,161 Climbing Houston Center
Wed 02:26:44 PM 29.5478 -95.6886 298° West 137 158 3,400 871 Climbing Houston Center
Wed 02:27:24 PM 29.5581 -95.7136 295° West 136 157 3,900 492 Climbing Houston Center
Wed 02:27:45 PM 29.5642 -95.7300 293° West 142 163 3,900  Level Houston Center
Wed 02:28:26 PM 29.5719 -95.7603 286° West 150 173 3,900 97 Level Houston Center
Wed 02:28:47 PM 29.5772 -95.7836 285° West 171 197 4,000  Climbing Houston Center
Wed 02:29:28 PM 29.5839 -95.8122 285° West 164 189 3,900 -98 Descending Houston Center
Wed 02:29:48 PM 29.5903 -95.8375 286° West 170 196 3,900 97 Level Houston Center
Wed 02:30:30 PM 29.5961 -95.8650 284° West 169 194 4,000  Climbing Houston Center
Wed 02:30:49 PM 29.6011 -95.8892 283° West 170 196 3,900 -97 Descending Houston Center
Wed 02:31:32 PM 29.6086 -95.9175 287° West 171 197 3,900  Level Houston Center
Wed 02:31:50 PM 29.6144 -95.9428 285° West 173 199 3,900 677 Level Houston Center
Wed 02:32:34 PM 29.6267 -95.9669 300° West 169 194 4,600 1,082 Climbing Houston Center
Wed 02:32:51 PM 29.6369 -95.9858 302° West 135 155 5,000 968 Climbing Houston Center
Wed 02:33:36 PM 29.6506 -96.0108 302° West 143 165 5,600 774 Climbing Houston Center
Wed 02:33:53 PM 29.6572 -96.0244 299° West 137 158 5,800 290 Climbing Houston Center
Wed 02:34:38 PM 29.6683 -96.0489 298° West 138 159 5,900 98 Climbing Houston Center
Wed 02:34:54 PM 29.6778 -96.0678 300° West 164 189 5,900 97 Level Houston Center
Wed 02:35:40 PM 29.6919 -96.0964 300° West 164 189 6,000  Climbing Houston Center
Wed 02:35:55 PM 29.7028 -96.1153 303° West 177 204 5,900 194 Descending Houston Center
Wed 02:36:42 PM 29.7161 -96.1444 298° West 174 200 6,200 689 Climbing Houston Center
Wed 02:36:56 PM 29.7236 -96.1636 294° West 156 180 6,600 774 Climbing Houston Center
Wed 02:37:44 PM 29.7406 -96.1953 302° West 154 177 7,000 536 Climbing Houston Center
Wed 02:37:52 PM 29.7439 -96.2022 299° West 152 175 7,100 581 Climbing Houston Center
Wed 02:38:46 PM 29.7614 -96.2378 300° West 153 176 7,600 590 Climbing Houston Center
Wed 02:38:53 PM 29.7642 -96.2456 292° West 153 176 7,700 265 Climbing Houston Center
Wed 02:39:54 PM 29.7847 -96.2889 299° West 159 183 7,900 103 Climbing Houston Center
Wed 02:40:50 PM 29.8075 -96.3369 299° West 179 206 7,900  Level Houston Center
Wed 02:41:50 PM 29.8325 -96.3847 301° West 177 204 7,900  Level Houston Center
Wed 02:41:51 PM 29.8294 -96.3786 120° Southeast 174 200 7,900  Level Houston Center
Wed 02:42:53 PM 29.8533 -96.4278 299° West 175 201 7,900  Level Houston Center
Wed 02:42:57 PM 29.8606 -96.4417 301° West 177 204 7,900  Level Houston Center
Wed 02:43:55 PM 29.8814 -96.4872 298° West 176 203 7,900  Level Houston Center
Wed 02:43:58 PM 29.8833 -96.4897 312° West 175 201 7,900  Level Houston Center
Wed 02:44:57 PM 29.9061 -96.5358 300° West 176 203 7,900  Level Houston Center
Wed 02:44:59 PM 29.9061 -96.5378 270° West 176 203 7,900 97 Level Houston Center
Wed 02:45:59 PM 29.9292 -96.5858 299° West 177 204 8,000 97 Climbing Houston Center
Wed 02:46:01 PM 29.9314 -96.5906 299° West 178 205 8,000 -97 Level Houston Center
Wed 02:47:01 PM 29.9539 -96.6356 300° West 179 206 7,900 -49 Descending Houston Center
Wed 02:48:03 PM 29.9781 -96.6850 299° West 178 205 7,900  Level Houston Center
Wed 02:49:05 PM 30.0022 -96.7350 299° West 179 206 7,900  Level Houston Center
Wed 02:50:07 PM 30.0306 -96.7953 299° West 179 206 7,900  Level Houston Center
Wed 02:51:09 PM 30.0550 -96.8444 300° West 178 205 7,900  Level Houston Center
Wed 02:52:11 PM 30.0781 -96.8950 298° West 178 205 7,900  Level Houston Center
Wed 02:53:13 PM 30.1019 -96.9444 299° West 178 205 7,900 -144 Level Houston Center
Wed 02:54:16 PM 30.1278 -96.9956 300° West 180 207 7,600 -480 Descending Houston Center
Wed 02:55:18 PM 30.1581 -97.0606 298° West 192 221 6,900 -581 Descending Houston Center
Wed 02:56:20 PM 30.1844 -97.1156 299° West 194 223 6,400 -532 Descending Houston Center
Wed 02:57:22 PM 30.2103 -97.1697 299° West 191 220 5,800 -581 Descending Houston Center
Wed 02:58:24 PM 30.2364 -97.2250 299° West 192 221 5,200 -532 Descending Houston Center
Wed 02:59:26 PM 30.2608 -97.2775 298° West 187 215 4,700 -532 Descending Houston Center
Wed 03:00:28 PM 30.2844 -97.3275 299° West 179 206 4,100 -581 Descending Houston Center
Wed 03:01:30 PM 30.3094 -97.3800 299° West 181 208 3,500 -629 Descending Houston Center
Wed 03:02:32 PM 30.3353 -97.4308 300° West 183 211 2,800 -435 Descending Houston Center
Wed 03:03:34 PM 30.3619 -97.4842 300° West 178 205 2,600 -194 Descending Houston Center

Login

Don't have an account? Register now (free) for customized features, flight alerts, and more!